Latest Weather Observations for Victoria River Downs

IDD60801

Issued at 9:31 am CST Monday 27 April 2015 (issued every 30 minutes, with the page automatically refreshed every 10 minutes)

About weather observations | Map of weather stations | Latest weather observations for NT | Other Formats
Station Details ID: 014825 Name: VICTORIA RIVER DOWNS Lat: -16.40 Lon: 131.01 Height: 88.5 m
Data from the previous 72 hours. | See also: Recent months at Victoria River Downs
Date/Time
CST
Temp
°C
App
Temp
°C
Dew
Point
Rel
Hum
%
Delta-T
°C
Wind Press
QNH
hPa
Press
MSL
hPa
Rain
since 9 am
mm
Dir
 
Spd
km/h
Gust
km/h
Spd
kts
Gust
kts
27/09:30am 21.4 17.3 2.2 28 9.0 SE 13 22 7 12 1017.9 - 0.0
27/09:00am 19.8 16.0 1.7 30 8.3 S 11 17 6 9 1018.0 1017.5 0.0
27/08:30am 18.2 15.3 1.7 33 7.4 SSE 6 13 3 7 1018.0 - 0.0
27/08:09am 16.1 14.9 4.8 47 5.4 CALM 0 0 0 0 1018.0 - 0.0
27/08:00am 15.2 13.9 4.0 47 5.2 CALM 0 0 0 0 1018.0 - 0.0
27/07:30am 11.2 8.7 3.5 59 3.4 W 6 7 3 4 1017.6 - 0.0
27/07:00am 9.5 8.0 2.8 63 2.9 CALM 0 7 0 4 1017.1 - 0.0
27/06:30am 9.8 7.1 2.6 61 3.1 SSW 6 6 3 3 1016.7 - 0.0
27/06:00am 10.3 8.7 2.7 59 3.3 CALM 0 7 0 4 1016.2 1015.7 0.0
27/05:30am 10.6 9.0 2.7 58 3.4 CALM 0 0 0 0 1016.1 - 0.0
27/05:00am 10.7 8.0 2.5 57 3.5 S 6 7 3 4 1016.1 - 0.0
27/04:30am 11.2 8.5 2.5 55 3.8 WSW 6 6 3 3 1016.1 - 0.0
27/04:00am 11.5 9.9 2.5 54 3.9 CALM 0 0 0 0 1015.9 - 0.0
27/03:30am 11.6 8.8 2.1 52 4.1 S 6 9 3 5 1015.8 - 0.0
27/03:00am 12.8 10.1 2.6 50 4.5 S 6 7 3 4 1015.8 1015.3 0.0
27/02:30am 13.3 11.6 1.6 45 5.1 CALM 0 0 0 0 1015.8 - 0.0
27/02:00am 14.3 12.6 1.9 43 5.4 CALM 0 0 0 0 1016.1 - 0.0
27/01:30am 15.8 12.5 0.4 35 6.6 SSE 7 9 4 5 1016.3 - 0.0
27/01:00am 18.0 14.4 0.6 31 7.7 S 9 11 5 6 1016.5 - 0.0
27/12:30am 19.2 16.3 1.2 30 8.1 SE 6 9 3 5 1016.7 - 0.0
27/12:00am 19.8 16.8 1.7 30 8.3 SSE 7 11 4 6 1016.7 1016.2 0.0
 
Date/Time
CST
Temp
°C
App
Temp
°C
Dew
Point
Rel
Hum
%
Delta-T
°C
Wind Press
QNH
hPa
Press
MSL
hPa
Rain
since 9 am
mm
Dir
 
Spd
km/h
Gust
km/h
Spd
kts
Gust
kts
26/11:30pm 20.0 16.2 1.9 30 8.3 SSE 11 15 6 8 1016.8 - 0.0
26/11:00pm 20.7 16.9 1.6 28 8.8 SE 11 17 6 9 1017.0 - 0.0
26/10:30pm 21.2 17.2 0.4 25 9.4 SE 11 15 6 8 1017.1 - 0.0
26/10:00pm 22.0 17.9 -0.1 23 9.9 SSE 11 17 6 9 1017.1 - 0.0
26/09:30pm 22.8 19.1 0.0 22 10.4 SSE 9 13 5 7 1016.9 - 0.0
26/09:00pm 23.4 19.7 -0.1 21 10.7 SSE 9 13 5 7 1016.5 1016.0 0.0
26/08:30pm 22.2 19.1 1.3 25 9.7 SSE 7 11 4 6 1016.1 - 0.0
26/08:00pm 23.1 20.0 1.4 24 10.1 S 7 11 4 6 1015.6 - 0.0
26/07:30pm 24.3 20.8 1.2 22 10.9 SSE 9 11 5 6 1015.2 - 0.0
26/07:00pm 25.4 21.8 0.8 20 11.6 S 9 11 5 6 1014.8 - 0.0
26/06:30pm 27.0 23.3 -0.1 17 12.7 SSE 9 13 5 7 1014.4 - 0.0
26/06:00pm 28.7 24.6 -0.5 15 13.7 SSE 11 17 6 9 1014.1 1013.5 0.0
26/05:30pm 29.5 25.1 0.2 15 14.0 SE 13 20 7 11 1013.8 - 0.0
26/05:00pm 29.6 25.0 -0.7 14 14.3 SE 13 19 7 10 1013.5 - 0.0
26/04:30pm 30.0 25.4 1.5 16 14.0 SSE 15 26 8 14 1013.5 - 0.0
26/04:00pm 29.9 25.4 -0.5 14 14.4 SE 13 24 7 13 1013.6 - 0.0
26/03:30pm 29.9 25.1 0.5 15 14.2 SE 15 26 8 14 1013.7 - 0.0
26/03:00pm 29.5 25.2 1.1 16 13.8 SE 13 24 7 13 1013.9 1013.3 0.0
26/02:00pm 29.2 24.4 2.5 18 13.3 SSE 17 32 9 17 1014.8 - 0.0
26/01:30pm 28.3 23.9 2.5 19 12.8 SE 15 22 8 12 1015.3 - 0.0
26/01:00pm 28.3 24.5 3.9 21 12.4 E 13 26 7 14 1015.8 - 0.0
26/12:30pm 27.6 22.4 2.6 20 12.3 SE 19 28 10 15 1016.3 - 0.0
26/12:00pm 28.0 23.8 3.7 21 12.2 SE 15 26 8 14 1016.8 1016.3 0.0
26/11:30am 26.8 22.1 3.3 22 11.7 SE 17 33 9 18 1017.4 - 0.0
26/10:30am 25.4 20.3 2.8 23 11.0 ESE 19 28 10 15 1018.2 - 0.0
26/10:00am 24.2 19.2 3.5 26 10.1 E 19 32 10 17 1018.3 - 0.0
26/09:30am 23.3 17.7 3.3 27 9.7 E 22 35 12 19 1018.3 - 0.0
26/09:00am 22.8 17.7 3.9 29 9.2 E 20 35 11 19 1018.0 - 0.0
26/08:30am 20.5 19.1 5.3 37 7.5 SE 2 7 1 4 1018.0 - 0.0
26/08:09am 18.1 17.5 7.5 50 5.4 CALM 0 0 0 0 1017.8 - 0.0
26/08:00am 16.8 16.0 6.6 51 5.0 CALM 0 0 0 0 1017.8 - 0.0
26/07:30am 13.2 12.1 5.1 58 3.8 CALM 0 0 0 0 1017.5 - 0.0
26/07:00am 12.5 10.9 4.7 59 3.6 SSW 2 7 1 4 1016.9 - 0.0
26/06:30am 13.1 11.6 4.8 57 3.8 W 2 7 1 4 1016.5 - 0.0
26/06:00am 13.6 11.3 5.0 56 4.0 WNW 6 7 3 4 1016.3 1015.8 0.0
26/05:30am 13.7 11.4 4.8 55 4.1 W 6 7 3 4 1015.9 - 0.0
26/05:00am 14.2 11.7 4.5 52 4.5 W 7 9 4 5 1015.6 - 0.0
26/04:30am 14.8 12.5 4.8 51 4.7 SSW 6 9 3 5 1015.4 - 0.0
26/04:00am 16.1 - 4.2 45 5.6 - - - - - 1015.0 - 0.0
26/03:30am 17.0 14.4 4.0 42 6.1 SSW 7 9 4 5 1014.8 - 0.0
26/03:00am 16.3 13.7 4.0 44 5.7 SSW 7 11 4 6 1014.8 1014.2 0.0
26/02:30am 19.3 16.4 2.6 33 7.8 S 7 11 4 6 1014.7 - 0.0
26/02:00am 17.5 14.4 3.8 40 6.4 SSW 9 11 5 6 1014.6 - 0.0
26/01:30am 19.3 16.4 2.6 33 7.8 S 7 11 4 6 1014.7 - 0.0
26/01:00am 17.7 16.2 5.0 43 6.1 SSE 2 9 1 5 1014.8 - 0.0
26/12:30am 19.0 16.9 4.0 37 7.2 SE 4 7 2 4 1014.9 - 0.0
26/12:00am 21.0 18.4 4.1 33 8.2 SE 7 9 4 5 1014.9 1014.3 0.0
 
Date/Time
CST
Temp
°C
App
Temp
°C
Dew
Point
Rel
Hum
%
Delta-T
°C
Wind Press
QNH
hPa
Press
MSL
hPa
Rain
since 9 am
mm
Dir
 
Spd
km/h
Gust
km/h
Spd
kts
Gust
kts
25/11:30pm 22.2 19.2 4.3 31 8.8 SE 9 11 5 6 1014.8 - 0.0
25/11:00pm 23.0 20.3 3.5 28 9.5 ESE 7 9 4 5 1014.9 - 0.0
25/10:30pm 23.7 20.9 3.1 26 10.0 SE 7 11 4 6 1014.8 - 0.0
25/10:00pm 23.4 20.5 4.4 29 9.4 SSE 9 11 5 6 1014.8 - 0.0
25/09:30pm 23.6 21.0 3.0 26 10.0 E 6 7 3 4 1014.7 - 0.0
25/09:00pm 25.7 22.9 3.0 23 11.1 SE 7 9 4 5 1014.3 1013.7 0.0
25/08:30pm 27.0 24.1 2.8 21 11.9 SE 7 13 4 7 1013.8 - 0.0
25/08:00pm 28.1 24.8 2.3 19 12.7 SSE 9 13 5 7 1013.0 - 0.0
25/07:30pm 28.9 25.7 3.0 19 13.0 SSE 9 11 5 6 1012.3 - 0.0
25/07:00pm 30.0 26.3 2.3 17 13.8 SSE 11 15 6 8 1011.8 - 0.0
25/06:30pm 31.0 26.8 1.4 15 14.6 SSE 13 20 7 11 1011.3 - 0.0
25/06:00pm 32.1 27.6 2.2 15 15.1 SSE 15 24 8 13 1010.9 - 0.0
25/05:30pm 33.1 28.0 3.0 15 15.5 SSE 19 30 10 16 1010.5 - 0.0
25/05:00pm 33.6 28.9 3.4 15 15.7 SE 17 37 9 20 1010.3 - 0.0
25/04:30pm 33.9 29.1 2.7 14 16.0 SSE 17 32 9 17 1010.3 - 0.0
25/04:00pm 34.0 30.0 2.8 14 16.1 S 13 28 7 15 1010.2 - 0.0
25/03:30pm 34.3 29.2 3.0 14 16.2 S 19 28 10 15 1010.2 - 0.0
25/03:00pm 34.4 30.3 2.0 13 16.5 SSE 13 30 7 16 1010.3 1009.9 0.0
25/02:30pm 34.7 30.6 4.3 15 16.1 SSE 15 26 8 14 1010.6 - 0.0
25/02:00pm 34.4 29.9 4.0 15 16.0 ESE 17 33 9 18 1010.9 - 0.0
25/01:30pm 34.2 29.3 1.9 13 16.4 ESE 17 28 9 15 1011.3 - 0.0
25/01:00pm 33.3 28.5 0.1 12 16.3 ESE 15 32 8 17 1011.8 - 0.0
25/12:30pm 33.1 29.0 2.0 14 15.7 ESE 13 28 7 15 1012.2 - 0.0
25/12:00pm 32.6 27.3 1.7 14 15.5 E 19 30 10 16 1012.6 1012.0 0.0
25/11:30am 31.9 26.7 0.1 13 15.5 ESE 17 30 9 16 1013.1 - 0.0
25/11:00am 31.9 26.7 0.1 13 15.5 ESE 17 28 9 15 1013.4 - 0.0
25/10:30am 31.0 25.5 0.4 14 14.9 ESE 19 28 10 15 1013.7 - 0.0
25/10:00am 29.7 24.4 -0.6 14 14.3 ESE 17 32 9 17 1013.8 - 0.0
25/09:30am 28.6 24.7 1.2 17 13.3 ESE 11 17 6 9 1013.7 - 0.0
25/09:28am 28.4 25.0 1.8 18 13.0 ESE 9 15 5 8 1013.7 - 0.0
25/09:00am 25.3 22.2 5.5 28 10.1 SE 11 19 6 10 1013.8 1013.1 0.0
25/08:30am 23.5 21.0 6.7 34 8.7 SSE 9 15 5 8 1013.5 - 0.0
25/08:13am 22.1 20.6 8.6 42 7.2 SSE 6 11 3 6 1013.4 - 0.0
25/08:00am 20.4 19.8 10.5 53 5.4 S 4 9 2 5 1013.3 - 0.0
25/07:30am 17.3 16.2 8.4 56 4.6 SW 4 7 2 4 1013.1 - 0.0
25/07:00am 16.0 15.6 8.2 60 4.0 CALM 0 0 0 0 1012.9 - 0.0
25/06:30am 16.2 15.8 8.2 59 4.1 CALM 0 0 0 0 1012.5 - 0.0
25/06:00am 16.7 16.3 8.1 57 4.4 CALM 0 0 0 0 1012.3 1011.7 0.0
25/05:30am 17.6 16.0 8.2 54 4.8 NW 6 7 3 4 1012.2 - 0.0
25/05:00am 17.7 17.2 8.0 53 5.0 CALM 0 6 0 3 1012.0 - 0.0
25/04:30am 17.8 16.0 8.1 53 5.0 WSW 7 9 4 5 1012.0 - 0.0
25/04:00am 18.2 16.4 7.9 51 5.3 SSW 7 9 4 5 1011.9 - 0.0
25/03:30am 17.9 16.7 8.2 53 5.0 WNW 4 7 2 4 1012.0 - 0.0
25/03:00am 18.3 17.8 8.0 51 5.3 CALM 0 0 0 0 1012.1 1011.5 0.0
25/02:30am 18.5 18.1 8.2 51 5.3 CALM 0 0 0 0 1012.2 - 0.0
25/02:00am 18.8 18.4 8.2 50 5.5 CALM 0 0 0 0 1012.3 - 0.0
25/01:30am 19.3 18.8 8.0 48 5.8 CALM 0 0 0 0 1012.5 - 0.0
25/01:00am 19.8 19.4 8.2 47 6.0 CALM 0 0 0 0 1012.6 - 0.0
25/12:30am 20.0 19.5 8.0 46 6.2 CALM 0 0 0 0 1012.8 - 0.0
25/12:00am 20.2 19.6 7.2 43 6.7 CALM 0 0 0 0 1012.9 1012.3 0.0
 
Date/Time
CST
Temp
°C
App
Temp
°C
Dew
Point
Rel
Hum
%
Delta-T
°C
Wind Press
QNH
hPa
Press
MSL
hPa
Rain
since 9 am
mm
Dir
 
Spd
km/h
Gust
km/h
Spd
kts
Gust
kts
24/11:30pm 22.6 20.7 7.6 38 7.8 S 7 11 4 6 1012.9 - 0.0
24/11:00pm 21.8 21.2 7.2 39 7.5 CALM 0 0 0 0 1012.9 - 0.0
24/10:30pm 21.9 21.2 7.0 38 7.7 CALM 0 0 0 0 1012.9 - 0.0
24/10:00pm 23.0 21.8 6.3 34 8.6 SE 2 7 1 4 1012.7 - 0.0
24/09:30pm 24.1 21.9 6.4 32 9.1 SSE 7 9 4 5 1012.6 - 0.0
24/09:00pm 24.8 22.6 6.1 30 9.7 SE 7 9 4 5 1012.4 1011.7 0.0
24/08:30pm 26.9 24.6 5.8 26 11.0 SSE 7 11 4 6 1011.9 - 0.0
24/08:00pm 27.6 25.2 5.2 24 11.6 SSE 7 9 4 5 1011.3 - 0.0
24/07:30pm 28.4 25.4 4.0 21 12.4 SE 9 11 5 6 1010.9 - 0.0
24/07:00pm 29.5 26.5 4.2 20 13.0 SSE 9 13 5 7 1010.5 - 0.0
24/06:30pm 31.1 27.4 2.3 16 14.5 SSE 11 13 6 7 1010.2 - 0.0
24/06:00pm 32.2 28.5 2.3 15 15.1 SSE 11 19 6 10 1009.8 1009.3 0.0
24/05:30pm 32.5 28.7 1.6 14 15.5 SSE 11 20 6 11 1009.4 - 0.0
24/05:00pm 33.0 29.1 0.9 13 15.9 S 11 19 6 10 1009.3 - 0.0
24/04:30pm 33.9 29.1 0.5 12 16.6 S 15 24 8 13 1009.4 - 0.0
24/04:00pm 34.3 30.7 0.8 12 16.7 SSE 9 19 5 10 1009.5 - 0.0
24/03:30pm 34.0 30.0 0.6 12 16.6 ESE 11 17 6 9 1009.6 - 0.0
24/03:00pm 34.3 29.8 -0.4 11 17.0 SE 13 22 7 12 1009.7 1009.2 0.0
24/02:30pm 33.9 30.5 1.6 13 16.3 ESE 9 17 5 9 1009.9 - 0.0
24/02:00pm 33.5 29.2 1.3 13 16.1 SSE 13 20 7 11 1010.2 - 0.0
24/01:30pm 32.9 28.7 1.9 14 15.6 ESE 13 22 7 12 1010.5 - 0.0
24/01:00pm 32.5 28.7 1.6 14 15.5 SSE 11 17 6 9 1011.2 - 0.0
24/12:30pm 31.9 27.8 2.1 15 15.0 ESE 13 26 7 14 1011.9 - 0.0
24/12:00pm 31.5 27.4 4.3 18 14.2 E 15 22 8 12 1012.4 1011.9 0.0
24/11:30am 31.2 27.1 2.4 16 14.5 E 13 24 7 13 1013.1 - 0.0
24/11:00am 29.6 25.1 2.0 17 13.7 E 15 24 8 13 1013.6 - 0.0
24/10:30am 29.2 25.4 3.9 20 12.9 ESE 13 22 7 12 1013.9 - 0.0
24/10:00am 27.2 23.5 4.3 23 11.6 E 13 22 7 12 1014.2 - 0.0

Other Formats:

Comma delimited format used in spreadsheet applications
http://www.bom.gov.au/fwo/IDD60801/IDD60801.94232.axf

JavaScript Object Notation format (JSON) in row-major order
http://www.bom.gov.au/fwo/IDD60801/IDD60801.94232.json